Time;durP1;ratioP1;P1;durP2;ratioP2;P2;SDS_P1;SDS_P2;PMS_P1;PMS_P2;Temp;Humidity;BMP_temperature;BMP_pressure;BME280_temperature;BME280_humidity;BME280_pressure;Samples;Min_cycle;Max_cycle;Signal;HPM_P1;HPM_P2
2023/08/19 00:02:00;;;;;;;4.20;3.80;;;;;;;22.95;92.86;98055.31;4178977;28;21203;-76
2023/08/19 00:04:04;;;;;;;4.87;4.07;;;;;;;22.92;93.06;98060.97;4169392;28;20667;-75
2023/08/19 00:06:08;;;;;;;4.33;3.93;;;;;;;22.91;93.14;98055.81;4169959;28;20662;-76
2023/08/19 00:08:11;;;;;;;5.03;3.60;;;;;;;22.90;93.35;98057.66;4178514;28;21202;-76
2023/08/19 00:10:14;;;;;;;4.37;3.70;;;;;;;22.90;93.84;98055.00;4171855;28;20651;-76
2023/08/19 00:12:17;;;;;;;4.40;3.33;;;;;;;22.87;93.69;98052.72;4170923;28;21207;-76
2023/08/19 00:14:21;;;;;;;4.47;3.77;;;;;;;22.83;93.20;98056.72;4177176;28;20628;-76
2023/08/19 00:16:24;;;;;;;4.33;3.70;;;;;;;22.79;93.48;98052.78;4168096;28;20649;-76
2023/08/19 00:18:28;;;;;;;3.90;3.50;;;;;;;22.77;93.96;98057.44;4169019;28;20683;-76
2023/08/19 00:20:32;;;;;;;4.33;3.77;;;;;;;22.77;93.79;98065.44;4161990;28;21327;-76
2023/08/19 00:22:36;;;;;;;5.10;3.70;;;;;;;22.77;93.55;98057.44;4154280;28;20875;-75
2023/08/19 00:24:39;;;;;;;6.40;3.90;;;;;;;22.76;93.35;98061.13;4168447;28;20714;-76
2023/08/19 00:26:42;;;;;;;5.33;3.83;;;;;;;22.73;94.13;98063.31;4169833;28;20660;-76
2023/08/19 00:28:45;;;;;;;5.20;4.43;;;;;;;22.70;93.76;98061.00;4171086;28;20642;-76
2023/08/19 00:30:50;;;;;;;6.53;4.30;;;;;;;22.68;93.97;98060.38;4164399;28;20634;-75
2023/08/19 00:32:53;;;;;;;6.27;4.27;;;;;;;22.66;94.30;98065.06;4175426;28;20691;-75
2023/08/19 00:34:56;;;;;;;5.03;3.93;;;;;;;22.64;93.65;98064.38;4170930;28;20676;-75
2023/08/19 00:36:59;;;;;;;4.20;3.60;;;;;;;22.61;93.94;98050.63;4161728;28;21000;-84
2023/08/19 00:39:03;;;;;;;4.43;3.80;;;;;;;22.61;93.91;98061.28;4153629;28;21027;-83
2023/08/19 00:41:06;;;;;;;5.00;3.60;;;;;;;22.58;94.36;98062.47;4174302;28;20634;-83
2023/08/19 00:43:10;;;;;;;4.23;3.70;;;;;;;22.56;94.17;98059.16;4177921;28;20619;-81
2023/08/19 00:45:13;;;;;;;6.10;4.17;;;;;;;22.53;94.26;98059.50;4160555;28;20660;-84
2023/08/19 00:47:17;;;;;;;5.60;4.10;;;;;;;22.51;94.62;98063.38;4168501;28;20646;-83
2023/08/19 00:49:20;;;;;;;4.83;4.33;;;;;;;22.49;94.42;98057.38;4171136;28;21122;-83
2023/08/19 00:51:24;;;;;;;6.07;4.13;;;;;;;22.47;94.47;98060.22;4171851;28;20629;-84
2023/08/19 00:53:28;;;;;;;7.03;3.63;;;;;;;22.46;95.31;98050.63;4171427;28;20687;-82
2023/08/19 00:55:32;;;;;;;5.90;4.00;;;;;;;22.44;94.64;98057.91;4174946;28;20697;-83
2023/08/19 00:57:36;;;;;;;6.43;4.37;;;;;;;22.43;94.78;98058.09;4158544;28;20624;-83
2023/08/19 00:59:39;;;;;;;6.70;4.40;;;;;;;22.42;95.06;98057.28;4166005;28;20635;-84
2023/08/19 01:01:43;;;;;;;4.90;4.37;;;;;;;22.42;94.35;98059.94;4159978;28;20689;-83
2023/08/19 01:03:47;;;;;;;4.97;3.93;;;;;;;22.41;94.72;98060.94;4177586;28;20709;-84
2023/08/19 01:06:00;;;;;;;5.27;4.10;;;;;;;22.39;95.00;98047.00;4174690;28;20670;-82
2023/08/19 01:08:05;;;;;;;6.57;3.87;;;;;;;22.37;94.88;98054.34;4173469;28;20630;-84
2023/08/19 01:10:11;;;;;;;4.60;3.90;;;;;;;22.36;94.84;98055.34;4170802;28;20999;-84
2023/08/19 01:12:20;;;;;;;5.17;4.13;;;;;;;22.35;94.99;98055.50;4168798;28;20632;-84
2023/08/19 01:14:35;;;;;;;4.83;3.73;;;;;;;22.33;95.67;98054.88;4167797;28;20680;-84
2023/08/19 01:16:40;;;;;;;4.77;4.00;;;;;;;22.31;95.04;98049.75;4170379;28;20682;-83
2023/08/19 01:18:43;;;;;;;6.50;4.13;;;;;;;22.29;95.24;98048.25;4168212;28;20637;-83
2023/08/19 01:20:49;;;;;;;5.40;4.00;;;;;;;22.25;95.01;98042.47;4148808;28;20709;-84
2023/08/19 01:22:56;;;;;;;5.63;3.73;;;;;;;22.23;95.53;98040.16;4171768;28;21007;-84
2023/08/19 01:25:01;;;;;;;7.77;4.50;;;;;;;22.20;95.88;98037.84;4167439;28;20678;-81
2023/08/19 01:27:05;;;;;;;5.83;4.70;;;;;;;22.19;95.58;98037.00;4175430;28;20684;-84
2023/08/19 01:29:10;;;;;;;5.13;4.03;;;;;;;22.18;95.32;98031.88;4180930;28;20667;-83
2023/08/19 01:31:13;;;;;;;4.13;3.53;;;;;;;22.16;95.57;98033.88;4173372;28;20641;-83
2023/08/19 01:33:17;;;;;;;4.77;4.07;;;;;;;22.15;95.73;98041.03;4174023;28;20631;-83
2023/08/19 01:35:21;;;;;;;4.67;4.20;;;;;;;22.14;95.55;98041.19;4173713;28;20643;-83
2023/08/19 01:37:29;;;;;;;4.30;3.77;;;;;;;22.10;95.67;98045.19;4166867;28;20635;-83
2023/08/19 01:39:33;;;;;;;4.30;3.77;;;;;;;22.09;95.88;98035.59;4154426;28;20683;-84
2023/08/19 01:41:38;;;;;;;5.70;4.43;;;;;;;22.10;95.38;98037.22;4154218;28;20670;-81
2023/08/19 01:43:41;;;;;;;5.30;3.80;;;;;;;22.08;95.51;98042.72;4158203;28;20636;-82
2023/08/19 01:45:45;;;;;;;5.87;4.30;;;;;;;22.08;95.82;98041.91;4150149;28;20644;-84
2023/08/19 01:47:52;;;;;;;6.80;4.20;;;;;;;22.06;95.53;98043.91;4147216;28;20660;-81
2023/08/19 01:49:57;;;;;;;5.43;4.50;;;;;;;22.04;95.84;98041.44;4167600;28;20686;-83
2023/08/19 01:52:00;;;;;;;4.53;3.90;;;;;;;22.03;95.87;98034.47;4161221;28;20635;-83
2023/08/19 01:54:04;;;;;;;5.27;4.20;;;;;;;22.03;95.35;98041.63;4167357;28;21073;-84
2023/08/19 01:56:07;;;;;;;5.40;3.70;;;;;;;22.01;96.04;98044.44;4166735;28;20985;-84
2023/08/19 01:58:12;;;;;;;5.10;4.37;;;;;;;22.00;95.24;98049.94;4150043;28;20624;-83
2023/08/19 02:00:16;;;;;;;4.90;4.27;;;;;;;21.97;95.47;98045.78;4166730;28;20706;-83
2023/08/19 02:02:19;;;;;;;6.30;4.33;;;;;;;21.94;96.15;98055.94;4172853;28;20633;-82
2023/08/19 02:04:22;;;;;;;4.53;4.07;;;;;;;21.91;96.29;98056.31;4174295;28;20803;-82
2023/08/19 02:06:25;;;;;;;6.10;4.70;;;;;;;21.87;96.48;98055.00;4173678;28;20635;-84
2023/08/19 02:08:29;;;;;;;4.63;4.13;;;;;;;21.84;96.82;98056.16;4159276;28;21010;-83
2023/08/19 02:10:32;;;;;;;4.73;4.20;;;;;;;21.83;96.21;98058.97;4160143;28;20721;-83
2023/08/19 02:12:35;;;;;;;4.37;3.97;;;;;;;21.80;95.70;98056.72;4170450;28;21001;-84
2023/08/19 02:14:41;;;;;;;4.60;3.97;;;;;;;21.77;96.84;98059.72;4177138;28;20692;-83
2023/08/19 02:16:44;;;;;;;4.23;3.77;;;;;;;21.75;96.40;98061.69;4177687;28;20613;-83
2023/08/19 02:18:46;;;;;;;4.60;4.07;;;;;;;21.72;96.36;98062.03;4173831;28;20631;-83
2023/08/19 02:20:51;;;;;;;5.53;4.40;;;;;;;21.68;96.13;98060.75;4184201;28;20638;-82
2023/08/19 02:22:54;;;;;;;7.43;4.67;;;;;;;21.68;96.68;98068.72;4167097;28;21538;-83
2023/08/19 02:24:58;;;;;;;4.83;4.33;;;;;;;21.66;96.99;98070.72;4169109;28;20625;-83
2023/08/19 02:27:02;;;;;;;5.27;4.70;;;;;;;21.65;96.26;98063.75;4171954;28;20728;-84
2023/08/19 02:29:05;;;;;;;4.70;4.30;;;;;;;21.63;96.32;98067.56;4168876;28;20654;-84
2023/08/19 02:31:10;;;;;;;5.23;4.50;;;;;;;21.62;96.81;98061.44;4161297;28;20684;-84
2023/08/19 02:33:12;;;;;;;5.43;4.90;;;;;;;21.60;97.25;98059.97;4158042;28;20664;-84
2023/08/19 02:35:17;;;;;;;5.43;3.53;;;;;;;21.57;97.60;98062.97;4170513;28;20633;-81
2023/08/19 02:37:19;;;;;;;7.33;4.30;;;;;;;21.55;96.39;98065.78;4171932;28;20614;-82
2023/08/19 02:39:23;;;;;;;6.00;4.37;;;;;;;21.53;97.69;98061.63;4176845;28;20626;-84
2023/08/19 02:41:26;;;;;;;7.83;4.83;;;;;;;21.51;97.67;98063.66;4170532;28;20710;-83
2023/08/19 02:43:29;;;;;;;6.23;4.40;;;;;;;21.49;96.31;98057.69;4176364;28;21290;-84
2023/08/19 02:45:35;;;;;;;5.47;4.07;;;;;;;21.46;96.58;98061.50;4173868;28;21217;-83
2023/08/19 02:47:40;;;;;;;5.33;4.50;;;;;;;21.45;97.67;98059.84;4179877;28;21085;-83
2023/08/19 02:49:43;;;;;;;5.33;4.47;;;;;;;21.44;96.92;98059.97;4179610;28;20627;-84
2023/08/19 02:51:46;;;;;;;6.40;4.40;;;;;;;21.42;97.79;98064.66;4163867;28;21326;-84
2023/08/19 02:53:50;;;;;;;6.70;4.77;;;;;;;21.41;97.91;98058.53;4178301;28;20641;-84
2023/08/19 02:55:53;;;;;;;7.67;5.10;;;;;;;21.40;97.19;98059.50;4178186;28;20641;-83
2023/08/19 02:57:56;;;;;;;9.00;5.10;;;;;;;21.40;97.81;98056.84;4161065;28;20741;-77
2023/08/19 03:00:00;;;;;;;6.13;4.70;;;;;;;21.38;98.20;98058.88;4159656;28;20630;-75
2023/08/19 03:02:03;;;;;;;5.00;4.50;;;;;;;21.37;97.16;98062.50;4171669;28;20639;-75
2023/08/19 03:04:08;;;;;;;5.07;4.57;;;;;;;21.36;98.35;98068.84;4158090;28;20667;-75
2023/08/19 03:06:10;;;;;;;5.80;4.53;;;;;;;21.34;97.21;98059.38;4169463;28;20723;-75
2023/08/19 03:08:14;;;;;;;6.30;4.63;;;;;;;21.31;96.98;98059.72;4162750;28;20662;-74
2023/08/19 03:10:17;;;;;;;5.07;4.20;;;;;;;21.27;97.37;98051.28;4174822;28;20615;-74
2023/08/19 03:12:20;;;;;;;5.47;4.20;;;;;;;21.26;98.23;98058.56;4184522;28;20638;-74
2023/08/19 03:14:24;;;;;;;5.87;4.60;;;;;;;21.25;98.00;98060.41;4179346;28;20738;-74
2023/08/19 03:16:27;;;;;;;6.07;4.70;;;;;;;21.23;98.24;98059.75;4176786;28;20630;-75
2023/08/19 03:18:30;;;;;;;6.10;4.73;;;;;;;21.23;98.12;98061.56;4163328;28;20666;-74
2023/08/19 03:20:35;;;;;;;5.33;4.50;;;;;;;21.22;98.60;98066.06;4156367;28;20644;-74
2023/08/19 03:22:38;;;;;;;5.93;4.80;;;;;;;21.21;97.92;98060.91;4168438;28;20615;-74
2023/08/19 03:24:41;;;;;;;5.70;4.63;;;;;;;21.19;97.55;98061.09;4177546;28;20617;-74
2023/08/19 03:26:44;;;;;;;7.23;4.57;;;;;;;21.19;98.46;98062.94;4173751;28;20736;-74
2023/08/19 03:28:48;;;;;;;5.17;4.67;;;;;;;21.18;98.86;98066.56;4154251;28;20661;-76
2023/08/19 03:30:51;;;;;;;5.00;4.50;;;;;;;21.18;98.56;98059.44;4174574;28;20646;-77
2023/08/19 03:32:55;;;;;;;9.03;4.80;;;;;;;21.17;98.32;98059.59;4167935;28;20624;-78
2023/08/19 03:34:59;;;;;;;5.33;4.60;;;;;;;21.17;99.02;98056.94;4174588;28;20663;-76
2023/08/19 03:37:04;;;;;;;6.00;5.17;;;;;;;21.15;98.07;98061.59;4171378;28;21187;-77
2023/08/19 03:39:07;;;;;;;5.47;4.33;;;;;;;21.13;97.74;98060.94;4150745;28;21105;-75
2023/08/19 03:41:11;;;;;;;5.03;4.53;;;;;;;21.11;98.64;98060.28;4175938;28;20688;-75
2023/08/19 03:43:14;;;;;;;6.47;4.60;;;;;;;21.09;99.11;98062.28;4179115;28;20642;-77
2023/08/19 03:45:17;;;;;;;5.43;4.30;;;;;;;21.09;97.84;98057.78;4173056;28;20735;-76
2023/08/19 03:47:20;;;;;;;7.63;4.53;;;;;;;21.07;97.98;98067.75;4169778;28;20681;-74
2023/08/19 03:49:23;;;;;;;6.33;5.40;;;;;;;21.06;97.93;98059.97;4169826;28;21241;-74
2023/08/19 03:51:27;;;;;;;6.00;4.17;;;;;;;21.05;98.89;98067.09;4158162;28;20730;-74
2023/08/19 03:53:31;;;;;;;5.77;4.90;;;;;;;21.05;98.24;98066.25;4174793;28;20690;-78
2023/08/19 03:55:35;;;;;;;5.53;4.50;;;;;;;21.02;98.09;98071.94;4167502;28;20681;-76
2023/08/19 03:57:38;;;;;;;6.13;4.57;;;;;;;21.00;98.62;98064.16;4161474;28;20656;-76
2023/08/19 03:59:41;;;;;;;8.27;4.80;;;;;;;21.00;98.30;98068.59;4170704;28;20629;-75
2023/08/19 04:01:44;;;;;;;5.80;4.50;;;;;;;20.97;98.13;98067.13;4154180;28;20633;-74
2023/08/19 04:03:48;;;;;;;6.80;4.87;;;;;;;20.95;98.38;98065.63;4166159;28;20787;-75
2023/08/19 04:05:52;;;;;;;6.20;4.57;;;;;;;20.93;98.72;98068.47;4177172;28;21324;-73
2023/08/19 04:07:55;;;;;;;5.33;4.83;;;;;;;20.93;98.42;98067.63;4168831;28;20631;-74
2023/08/19 04:09:59;;;;;;;5.00;4.50;;;;;;;20.92;99.77;98065.97;4173812;28;21064;-73
2023/08/19 04:12:03;;;;;;;5.97;4.17;;;;;;;20.90;99.99;98068.78;4173376;28;20645;-75
2023/08/19 04:14:06;;;;;;;7.33;5.10;;;;;;;20.90;98.58;98063.50;4161561;28;20627;-75
2023/08/19 04:16:10;;;;;;;5.13;4.60;;;;;;;20.90;99.98;98063.50;4170483;28;20616;-74
2023/08/19 04:18:15;;;;;;;7.33;4.87;;;;;;;20.89;99.12;98063.66;4171739;28;20634;-74
2023/08/19 04:20:19;;;;;;;5.77;4.57;;;;;;;20.90;99.02;98067.97;4173303;28;20673;-74
2023/08/19 04:22:22;;;;;;;7.73;4.20;;;;;;;20.92;100.00;98074.75;4174699;28;20639;-73
2023/08/19 04:24:25;;;;;;;5.30;4.80;;;;;;;20.94;100.00;98069.28;4162603;28;21207;-74
2023/08/19 04:26:30;;;;;;;5.10;4.63;;;;;;;20.94;100.00;98074.59;4183054;28;21244;-75
2023/08/19 04:28:32;;;;;;;5.67;4.70;;;;;;;20.93;99.35;98068.47;4155374;28;20645;-76
2023/08/19 04:30:36;;;;;;;5.83;4.50;;;;;;;20.95;99.58;98073.59;4159797;28;20664;-74
2023/08/19 04:32:39;;;;;;;5.27;4.77;;;;;;;20.99;99.90;98082.88;4177970;28;20633;-75
2023/08/19 04:34:42;;;;;;;7.43;5.70;;;;;;;21.00;100.00;98074.75;4156812;28;20696;-73
2023/08/19 04:36:45;;;;;;;5.77;4.53;;;;;;;21.00;99.41;98088.03;4174430;28;20628;-74
2023/08/19 04:38:48;;;;;;;4.97;4.37;;;;;;;21.02;99.27;98082.53;4170693;28;20676;-74
2023/08/19 04:40:54;;;;;;;5.40;4.10;;;;;;;21.04;99.84;98080.53;4171474;28;20656;-74
2023/08/19 04:42:58;;;;;;;8.40;4.80;;;;;;;21.04;99.20;98088.50;4165625;28;21235;-74
2023/08/19 04:45:02;;;;;;;6.27;4.90;;;;;;;21.06;99.58;98083.84;4176687;28;20722;-75
2023/08/19 04:47:08;;;;;;;6.10;4.63;;;;;;;21.08;99.71;98092.44;4162132;28;20636;-74
2023/08/19 04:49:14;;;;;;;5.57;4.40;;;;;;;21.10;99.31;98091.28;4168404;28;21238;-73
2023/08/19 04:51:18;;;;;;;6.20;5.13;;;;;;;21.14;99.09;98089.13;4158792;28;21333;-76
2023/08/19 04:53:21;;;;;;;5.80;4.97;;;;;;;21.17;99.89;98094.09;4169468;28;21190;-75
2023/08/19 04:55:26;;;;;;;10.50;5.93;;;;;;;21.20;99.00;98091.09;4169103;28;20639;-74
2023/08/19 04:57:29;;;;;;;4.90;4.13;;;;;;;21.24;99.91;98092.41;4176419;28;20631;-74
2023/08/19 04:59:35;;;;;;;5.37;4.87;;;;;;;21.28;98.55;98094.56;4157969;28;20635;-75
2023/08/19 05:01:38;;;;;;;5.10;4.60;;;;;;;21.32;99.05;98091.41;4165676;28;21416;-73
2023/08/19 05:03:40;;;;;;;4.80;4.27;;;;;;;21.35;97.93;98099.03;4169514;28;20846;-73
2023/08/19 05:05:44;;;;;;;5.10;4.00;;;;;;;21.40;99.09;98094.03;4169487;28;20673;-74
2023/08/19 05:07:47;;;;;;;6.93;5.00;;;;;;;21.45;98.37;98091.69;4168814;28;21012;-74
2023/08/19 05:09:50;;;;;;;6.10;4.60;;;;;;;21.50;99.10;98092.03;4174552;28;20691;-75
2023/08/19 05:11:54;;;;;;;6.13;4.67;;;;;;;21.54;98.11;98095.97;4168405;28;20781;-74
2023/08/19 05:13:57;;;;;;;6.20;4.87;;;;;;;21.58;97.72;98101.78;4174967;28;21174;-73
2023/08/19 05:16:01;;;;;;;6.63;5.27;;;;;;;21.63;98.27;98094.13;4158745;28;21061;-75
2023/08/19 05:18:05;;;;;;;5.70;4.63;;;;;;;21.68;98.29;98105.91;4179797;28;20643;-73
2023/08/19 05:20:09;;;;;;;5.80;4.30;;;;;;;21.74;97.05;98107.03;4171994;28;20638;-74
2023/08/19 05:22:12;;;;;;;6.10;4.00;;;;;;;21.85;97.35;98107.47;4169351;28;20647;-73
2023/08/19 05:24:16;;;;;;;6.23;4.70;;;;;;;22.00;96.93;98106.56;4170597;28;20628;-76
2023/08/19 05:26:20;;;;;;;6.00;4.10;;;;;;;22.16;96.04;98110.94;4170270;28;20621;-74
2023/08/19 05:28:22;;;;;;;5.87;4.70;;;;;;;22.28;94.73;98111.22;4174900;28;20663;-75
2023/08/19 05:30:25;;;;;;;7.73;4.67;;;;;;;22.44;94.43;98113.75;4154542;28;21238;-75
2023/08/19 05:32:30;;;;;;;5.57;3.90;;;;;;;22.61;93.94;98117.94;4169114;28;20624;-74
2023/08/19 05:34:33;;;;;;;5.77;4.37;;;;;;;22.75;93.08;98125.16;4160424;28;20626;-74
2023/08/19 05:36:36;;;;;;;6.43;4.47;;;;;;;22.93;92.51;98121.19;4156492;28;20623;-74
2023/08/19 05:38:39;;;;;;;4.53;4.13;;;;;;;23.13;92.25;98126.84;4154780;28;21255;-76
2023/08/19 05:40:43;;;;;;;5.60;4.47;;;;;;;23.28;91.35;98131.16;4172574;28;20626;-74
2023/08/19 05:42:46;;;;;;;6.70;4.53;;;;;;;23.47;91.06;98136.78;4171824;28;20673;-73
2023/08/19 05:44:49;;;;;;;6.50;5.07;;;;;;;23.59;90.61;98140.66;4169681;28;20657;-74
2023/08/19 05:46:53;;;;;;;5.60;4.93;;;;;;;23.57;88.82;98133.84;4168370;28;21239;-74
2023/08/19 05:48:57;;;;;;;5.20;4.20;;;;;;;23.47;89.21;98131.47;4177010;28;20717;-74
2023/08/19 05:51:02;;;;;;;4.90;4.33;;;;;;;23.38;89.78;98132.56;4159782;28;20683;-74
2023/08/19 05:53:05;;;;;;;5.10;4.40;;;;;;;23.28;90.82;98137.31;4170575;28;20730;-74
2023/08/19 05:55:08;;;;;;;8.30;4.47;;;;;;;23.22;92.04;98131.91;4172254;28;20624;-75
2023/08/19 05:57:11;;;;;;;6.37;3.97;;;;;;;23.16;91.64;98129.16;4165292;28;20656;-74
2023/08/19 05:59:14;;;;;;;5.07;4.60;;;;;;;23.13;92.66;98129.50;4171438;28;21056;-75
2023/08/19 06:01:17;;;;;;;5.33;4.10;;;;;;;23.13;92.48;98132.16;4171653;28;21040;-74
2023/08/19 06:03:21;;;;;;;5.43;4.63;;;;;;;23.23;93.35;98134.38;4176467;28;20723;-74
2023/08/19 06:05:26;;;;;;;4.80;4.20;;;;;;;23.57;91.90;98144.50;4173231;28;20629;-74
2023/08/19 06:07:29;;;;;;;5.77;4.40;;;;;;;23.75;90.15;98141.31;4176669;28;20662;-74
2023/08/19 06:09:33;;;;;;;7.80;4.80;;;;;;;24.02;88.73;98145.13;4173283;28;20652;-74
2023/08/19 06:11:47;;;;;;;5.50;4.60;;;;;;;24.35;89.45;98157.88;4174303;28;20633;-75
2023/08/19 06:13:51;;;;;;;6.03;4.40;;;;;;;24.61;87.45;98156.28;4170070;28;21248;-75
2023/08/19 06:15:55;;;;;;;5.90;4.77;;;;;;;24.86;87.51;98165.59;4177517;28;20634;-74
2023/08/19 06:17:58;;;;;;;5.70;5.10;;;;;;;25.10;86.36;98163.38;4175511;28;20655;-74
2023/08/19 06:20:01;;;;;;;5.30;4.80;;;;;;;25.30;85.39;98167.84;4173161;28;21221;-75
2023/08/19 06:22:07;;;;;;;5.63;4.40;;;;;;;25.50;85.56;98166.16;4178927;28;20681;-75
2023/08/19 06:24:10;;;;;;;5.30;4.80;;;;;;;25.66;83.97;98164.03;4164002;28;20644;-74
2023/08/19 06:26:13;;;;;;;4.80;4.27;;;;;;;25.83;83.43;98162.69;4161354;28;21030;-75
2023/08/19 06:28:16;;;;;;;5.40;4.40;;;;;;;25.97;82.32;98159.03;4175590;28;20675;-82
2023/08/19 06:30:19;;;;;;;4.70;4.30;;;;;;;26.08;81.51;98160.31;4171564;28;21250;-80
2023/08/19 06:32:23;;;;;;;6.83;5.23;;;;;;;26.27;82.53;98163.94;4173909;28;20673;-82
2023/08/19 06:34:27;;;;;;;6.10;4.60;;;;;;;26.38;80.60;98166.03;4180189;28;20608;-82
2023/08/19 06:36:30;;;;;;;7.37;4.87;;;;;;;26.53;82.57;98169.38;4158788;28;20635;-82
2023/08/19 06:38:35;;;;;;;5.10;4.60;;;;;;;26.73;82.22;98167.53;4171692;28;20626;-82
2023/08/19 06:40:40;;;;;;;9.50;4.70;;;;;;;26.90;80.72;98164.31;4167450;28;20720;-82
2023/08/19 06:42:43;;;;;;;5.30;4.70;;;;;;;27.04;81.11;98165.16;4176515;28;21204;-83
2023/08/19 06:44:50;;;;;;;5.50;4.67;;;;;;;27.17;82.04;98166.00;4171229;28;20658;-83
2023/08/19 06:46:55;;;;;;;5.27;4.77;;;;;;;27.32;81.75;98175.47;4171191;28;20644;-82
2023/08/19 06:48:58;;;;;;;5.90;4.63;;;;;;;27.51;82.27;98181.88;4166357;28;20660;-82
2023/08/19 06:51:03;;;;;;;4.80;3.83;;;;;;;27.60;79.90;98182.28;4170732;28;21281;-82
2023/08/19 06:53:09;;;;;;;5.30;4.80;;;;;;;27.70;78.30;98176.50;4172600;28;20641;-81
2023/08/19 06:55:15;;;;;;;5.07;4.37;;;;;;;27.81;77.79;98181.19;4162691;28;20675;-81
2023/08/19 06:57:25;;;;;;;6.67;4.87;;;;;;;27.96;78.51;98189.84;4174222;28;20628;-82
2023/08/19 06:59:33;;;;;;;4.60;4.10;;;;;;;28.08;77.68;98195.19;4172831;28;21241;-83
2023/08/19 07:01:38;;;;;;;5.87;4.70;;;;;;;28.23;78.53;98187.69;4170074;28;20635;-83
2023/08/19 07:03:42;;;;;;;4.37;3.97;;;;;;;28.41;77.97;98201.25;4170921;28;21254;-83
2023/08/19 07:05:46;;;;;;;6.27;4.53;;;;;;;28.58;79.42;98200.56;4171768;28;20640;-83
2023/08/19 07:07:51;;;;;;;4.90;4.27;;;;;;;28.72;78.37;98198.66;4172212;28;20639;-83
2023/08/19 07:09:55;;;;;;;4.53;4.10;;;;;;;28.87;77.35;98202.72;4170860;28;20648;-83
2023/08/19 07:12:01;;;;;;;5.03;4.30;;;;;;;28.97;77.45;98202.22;4169748;28;21220;-83
2023/08/19 07:14:05;;;;;;;5.13;4.17;;;;;;;29.09;78.26;98204.00;4173856;28;20683;-82
2023/08/19 07:16:11;;;;;;;5.67;4.77;;;;;;;29.15;76.48;98206.66;4156264;28;20628;-83
2023/08/19 07:18:16;;;;;;;6.47;5.33;;;;;;;29.23;75.39;98208.25;4176202;28;20703;-83
2023/08/19 07:20:22;;;;;;;4.50;4.10;;;;;;;29.37;74.34;98209.81;4170248;28;21251;-83
2023/08/19 07:22:26;;;;;;;6.63;4.20;;;;;;;29.56;76.89;98209.66;4170195;28;20706;-82
2023/08/19 07:24:30;;;;;;;5.20;4.13;;;;;;;29.64;75.02;98207.50;4171747;28;20629;-83
2023/08/19 07:26:33;;;;;;;5.00;3.90;;;;;;;29.72;73.00;98201.81;4175013;28;20645;-82
2023/08/19 07:28:38;;;;;;;4.77;4.30;;;;;;;29.78;72.53;98195.56;4153008;28;21242;-83
2023/08/19 07:30:41;;;;;;;4.87;4.30;;;;;;;29.89;72.86;98210.19;4161489;28;20671;-83
2023/08/19 07:32:45;;;;;;;5.93;4.63;;;;;;;30.04;72.40;98215.00;4168024;28;20739;-83
2023/08/19 07:34:48;;;;;;;5.23;4.40;;;;;;;30.15;73.23;98211.56;4177377;28;21222;-82
2023/08/19 07:36:51;;;;;;;5.07;4.57;;;;;;;30.31;73.07;98208.28;4168648;28;20758;-82
2023/08/19 07:38:55;;;;;;;5.00;4.10;;;;;;;30.44;70.49;98200.06;4176455;28;20642;-75
2023/08/19 07:40:58;;;;;;;5.93;4.07;;;;;;;30.47;70.53;98207.69;4171004;28;20630;-75
2023/08/19 07:43:01;;;;;;;4.63;4.17;;;;;;;30.54;70.36;98194.97;4143063;28;20764;-75
2023/08/19 07:45:07;;;;;;;4.60;3.73;;;;;;;30.65;69.82;98207.66;4172305;28;21505;-74
2023/08/19 07:47:10;;;;;;;4.43;3.93;;;;;;;30.82;69.99;98200.59;4176464;28;21033;-76
2023/08/19 07:49:13;;;;;;;7.03;4.53;;;;;;;30.94;67.54;98205.84;4161049;28;21153;-75
2023/08/19 07:51:17;;;;;;;4.20;3.80;;;;;;;31.07;67.86;98208.31;4169244;28;20657;-74
2023/08/19 07:53:20;;;;;;;4.60;4.20;;;;;;;31.12;65.83;98208.47;4170439;28;20612;-76
2023/08/19 07:55:22;;;;;;;4.80;3.50;;;;;;;31.16;68.15;98206.13;4158575;28;20657;-74
2023/08/19 07:57:25;;;;;;;4.40;3.87;;;;;;;31.32;65.94;98211.69;4174678;28;20687;-75
2023/08/19 07:59:28;;;;;;;4.63;3.90;;;;;;;31.45;67.58;98211.47;4174772;28;21047;-75
2023/08/19 08:01:33;;;;;;;4.77;4.07;;;;;;;31.56;68.01;98213.41;4172865;28;20655;-75
2023/08/19 08:03:37;;;;;;;4.70;4.00;;;;;;;31.66;66.59;98210.91;4159864;28;20675;-75
2023/08/19 08:05:40;;;;;;;6.60;4.40;;;;;;;31.81;68.34;98208.59;4173084;28;20628;-77
2023/08/19 08:07:43;;;;;;;4.90;3.87;;;;;;;31.86;64.62;98208.69;4168717;28;20629;-75
2023/08/19 08:09:47;;;;;;;3.27;2.97;;;;;;;31.96;68.79;98205.19;4157255;28;21202;-75
2023/08/19 08:11:50;;;;;;;4.23;3.83;;;;;;;32.10;68.88;98212.00;4177766;28;20714;-75
2023/08/19 08:13:53;;;;;;;4.20;3.67;;;;;;;32.21;67.07;98211.16;4174130;28;21184;-76
2023/08/19 08:15:56;;;;;;;4.20;3.77;;;;;;;32.31;66.87;98208.69;4174671;28;20648;-75
2023/08/19 08:18:01;;;;;;;3.73;3.33;;;;;;;32.44;66.25;98197.63;4171098;28;21190;-75
2023/08/19 08:20:05;;;;;;;3.40;3.10;;;;;;;32.59;66.21;98206.06;4174512;28;20621;-74
2023/08/19 08:22:08;;;;;;;3.83;3.20;;;;;;;32.70;63.72;98207.88;4157375;28;20677;-75
2023/08/19 08:24:12;;;;;;;7.87;3.63;;;;;;;32.66;63.41;98198.63;4160865;28;20664;-76
2023/08/19 08:26:15;;;;;;;6.07;3.80;;;;;;;32.78;67.63;98200.22;4175339;28;20644;-76
2023/08/19 08:28:18;;;;;;;4.40;3.60;;;;;;;32.86;67.23;98202.53;4167311;28;20709;-75
2023/08/19 08:30:21;;;;;;;6.70;3.93;;;;;;;32.96;66.77;98200.06;4173308;28;20613;-76
2023/08/19 08:32:24;;;;;;;5.13;3.80;;;;;;;32.99;61.70;98200.38;4175451;28;20661;-75
2023/08/19 08:34:28;;;;;;;6.10;3.13;;;;;;;32.91;64.37;98198.06;4174671;28;20614;-75
2023/08/19 08:36:32;;;;;;;5.17;3.50;;;;;;;32.99;65.16;98197.69;4176109;28;21188;-76
2023/08/19 08:38:35;;;;;;;4.57;3.60;;;;;;;33.11;64.23;98201.16;4172033;28;20669;-75
2023/08/19 08:40:38;;;;;;;4.40;4.00;;;;;;;33.21;63.62;98204.03;4168969;28;20757;-75
2023/08/19 08:42:42;;;;;;;4.23;3.83;;;;;;;33.27;63.93;98205.75;4170963;28;21018;-77
2023/08/19 08:44:46;;;;;;;4.00;3.27;;;;;;;33.30;62.73;98199.03;4172268;28;20984;-75
2023/08/19 08:46:51;;;;;;;5.13;4.07;;;;;;;33.37;63.89;98201.31;4174179;28;20668;-77
2023/08/19 08:48:55;;;;;;;4.10;3.70;;;;;;;33.48;65.17;98202.34;4161640;28;20660;-84
2023/08/19 08:51:00;;;;;;;4.67;3.70;;;;;;;33.54;64.66;98202.19;4172293;28;20756;-83
2023/08/19 08:53:03;;;;;;;4.77;3.77;;;;;;;33.63;63.27;98208.03;4174790;28;20622;-83
2023/08/19 08:55:07;;;;;;;5.33;3.97;;;;;;;33.74;66.51;98207.09;4154191;28;21291;-81
2023/08/19 08:57:12;;;;;;;5.10;3.93;;;;;;;33.80;64.79;98206.09;4160506;28;20629;-83
2023/08/19 08:59:16;;;;;;;5.43;3.53;;;;;;;33.85;65.89;98209.72;4176307;28;20712;-83
2023/08/19 09:01:22;;;;;;;5.00;3.87;;;;;;;33.86;65.23;98206.78;4171143;28;21049;-83
2023/08/19 09:03:25;;;;;;;5.17;3.90;;;;;;;33.88;63.80;98204.63;4172689;28;20974;-83
2023/08/19 09:05:30;;;;;;;5.90;3.57;;;;;;;33.83;62.98;98209.97;4174682;28;20985;-83
2023/08/19 09:07:39;;;;;;;4.23;3.43;;;;;;;33.90;63.01;98207.09;4171646;28;21038;-84
2023/08/19 09:09:43;;;;;;;4.73;3.50;;;;;;;33.95;62.37;98202.59;4169033;28;20631;-83
2023/08/19 09:11:48;;;;;;;4.53;3.87;;;;;;;33.98;62.69;98204.81;4170727;28;20767;-83
2023/08/19 09:13:56;;;;;;;5.10;3.40;;;;;;;34.00;62.18;98202.66;4171202;28;20644;-84
2023/08/19 09:15:59;;;;;;;4.30;3.90;;;;;;;33.96;62.25;98209.66;4171048;28;21006;-83
2023/08/19 09:18:02;;;;;;;4.03;3.63;;;;;;;33.91;63.48;98209.56;4169792;28;20692;-83
2023/08/19 09:20:07;;;;;;;4.27;3.70;;;;;;;34.00;64.43;98213.50;4152644;28;21210;-82
2023/08/19 09:22:11;;;;;;;6.47;4.50;;;;;;;34.05;62.18;98210.84;4176932;28;21048;-81
2023/08/19 09:24:17;;;;;;;4.63;3.80;;;;;;;34.07;61.93;98214.16;4151146;28;20844;-83
2023/08/19 09:26:20;;;;;;;4.20;3.70;;;;;;;34.07;61.21;98211.44;4161249;28;21243;-83
2023/08/19 09:28:23;;;;;;;4.73;3.63;;;;;;;34.10;60.49;98212.81;4171039;28;20652;-80
2023/08/19 09:30:31;;;;;;;4.70;3.70;;;;;;;34.12;63.19;98211.50;4167587;28;20779;-83
2023/08/19 09:32:36;;;;;;;6.27;3.90;;;;;;;34.10;62.57;98208.25;4170021;28;20653;-83
2023/08/19 09:34:41;;;;;;;4.40;4.00;;;;;;;34.16;63.78;98207.25;4171706;28;20707;-83
2023/08/19 09:36:44;;;;;;;3.80;3.50;;;;;;;34.23;61.54;98201.63;4167797;28;20773;-83
2023/08/19 09:38:52;;;;;;;5.17;3.80;;;;;;;34.29;61.52;98197.91;4175263;28;20637;-83
2023/08/19 09:41:01;;;;;;;5.20;3.83;;;;;;;34.35;62.01;98205.84;4159770;28;20644;-83
2023/08/19 09:43:05;;;;;;;5.00;3.77;;;;;;;34.39;64.06;98209.72;4167985;28;20621;-83
2023/08/19 09:45:17;;;;;;;5.30;3.63;;;;;;;34.45;64.28;98190.56;4151184;28;20649;-82